Time;durP1;ratioP1;P1;durP2;ratioP2;P2;SDS_P1;SDS_P2;PMS_P1;PMS_P2;Temp;Humidity;BMP_temperature;BMP_pressure;BME280_temperature;BME280_humidity;BME280_pressure;Samples;Min_cycle;Max_cycle;Signal;HPM_P1;HPM_P2
2022/11/19 00:00:55;;;;;;;7.93;2.47;;;;;;;-145.69;100.00;52662.22;5115373;28;20220;-78
2022/11/19 00:03:22;;;;;;;6.77;2.23;;;;;;;-145.69;100.00;52662.22;5114366;28;20204;-78
2022/11/19 00:05:50;;;;;;;5.20;2.40;;;;;;;-145.69;100.00;52658.28;5115182;28;20212;-78
2022/11/19 00:08:19;;;;;;;5.80;2.20;;;;;;;-145.69;100.00;52634.50;5115136;28;20547;-78
2022/11/19 00:10:47;;;;;;;6.70;2.37;;;;;;;-145.69;100.00;52606.78;5115427;28;20197;-78
2022/11/19 00:13:13;;;;;;;5.57;2.13;;;;;;;-145.69;100.00;52662.22;5115257;28;20201;-78
2022/11/19 00:15:41;;;;;;;5.90;2.20;;;;;;;-145.69;100.00;52654.31;5115080;28;20274;-78
2022/11/19 00:18:08;;;;;;;5.27;2.13;;;;;;;-145.69;100.00;52622.63;5114795;28;20198;-78
2022/11/19 00:20:35;;;;;;;6.60;2.10;;;;;;;-145.69;100.00;52666.19;5114966;28;20197;-78
2022/11/19 00:23:02;;;;;;;3.37;1.60;;;;;;;-145.69;100.00;52668.19;5114813;28;20194;-78
2022/11/19 00:25:30;;;;;;;4.00;2.00;;;;;;;-145.69;100.00;52686.00;5114676;28;20208;-78
2022/11/19 00:27:58;;;;;;;9.00;1.73;;;;;;;-145.69;100.00;52642.44;5114704;28;20206;-78
2022/11/19 00:30:26;;;;;;;7.53;1.80;;;;;;;-145.69;100.00;52695.91;5114730;28;20197;-78
2022/11/19 00:32:52;;;;;;;4.10;1.70;;;;;;;-145.69;100.00;52658.28;5114448;28;20249;-78
2022/11/19 00:35:19;;;;;;;3.77;1.70;;;;;;;-145.69;100.00;52630.53;5114325;28;20228;-79
2022/11/19 00:37:45;;;;;;;4.37;2.00;;;;;;;-145.69;100.00;52697.88;5114923;28;20198;-79
2022/11/19 00:40:12;;;;;;;5.77;1.57;;;;;;;-145.69;100.00;52674.13;5114736;28;20205;-78
2022/11/19 00:43:45;;;;;;;6.40;1.70;;;;;;;-145.69;100.00;52693.94;5114585;28;20208;-78
2022/11/19 00:45:27;;;;;;;3.50;1.63;;;;;;;-145.69;100.00;52664.22;5114546;27;20208;-79
2022/11/19 00:47:53;;;;;;;3.27;1.70;;;;;;;-145.69;100.00;52660.25;5113744;28;20198;-79
2022/11/19 00:50:20;;;;;;;8.53;2.10;;;;;;;-145.69;100.00;52684.03;5113658;28;20224;-78
2022/11/19 00:52:46;;;;;;;3.40;1.97;;;;;;;-145.69;100.00;52662.22;5114354;28;20200;-78
2022/11/19 00:55:13;;;;;;;4.40;2.03;;;;;;;-145.69;100.00;52644.41;5114307;28;20229;-79
2022/11/19 00:57:39;;;;;;;6.97;1.83;;;;;;;-145.69;100.00;52664.22;5112983;28;20207;-79
2022/11/19 01:00:07;;;;;;;3.67;1.90;;;;;;;-145.69;100.00;52684.03;5114218;28;20619;-78
2022/11/19 01:02:35;;;;;;;4.10;1.53;;;;;;;-145.69;100.00;52682.03;5113196;28;20193;-78
2022/11/19 01:05:02;;;;;;;5.93;2.00;;;;;;;-145.69;100.00;52676.09;5114246;28;20208;-78
2022/11/19 01:07:28;;;;;;;5.70;1.90;;;;;;;-145.69;100.00;52654.31;5114195;28;20197;-78
2022/11/19 01:09:54;;;;;;;4.17;1.93;;;;;;;-145.69;100.00;52654.31;5114082;28;20197;-78
2022/11/19 01:12:21;;;;;;;3.93;1.73;;;;;;;-145.69;100.00;52648.38;5112740;28;20194;-78
2022/11/19 01:14:47;;;;;;;4.80;2.10;;;;;;;-145.69;100.00;52670.16;5113563;28;20224;-78
2022/11/19 01:17:14;;;;;;;5.43;1.80;;;;;;;-145.69;100.00;52666.19;5113654;28;20660;-78
2022/11/19 01:19:42;;;;;;;4.73;1.70;;;;;;;-145.69;100.00;52678.09;5113732;28;20204;-78
2022/11/19 01:22:08;;;;;;;3.43;1.90;;;;;;;-145.69;100.00;52666.19;5113680;28;20202;-78
2022/11/19 01:24:35;;;;;;;5.43;1.70;;;;;;;-145.69;100.00;52682.03;5113899;28;20200;-78
2022/11/19 01:27:01;;;;;;;3.93;1.73;;;;;;;-145.69;100.00;52660.25;5113736;28;20197;-78
2022/11/19 01:29:27;;;;;;;3.67;1.77;;;;;;;-145.69;100.00;52662.22;5108674;28;20427;-78
2022/11/19 01:31:54;;;;;;;3.57;1.80;;;;;;;-145.69;100.00;52658.28;5093499;28;20220;-78
2022/11/19 01:34:20;;;;;;;2.43;1.30;;;;;;;-145.69;100.00;52676.09;5093468;28;20198;-78
2022/11/19 01:36:48;;;;;;;4.10;1.97;;;;;;;-145.69;100.00;52658.28;5093072;28;20241;-78
2022/11/19 01:39:15;;;;;;;2.13;1.20;;;;;;;-145.69;100.00;52646.41;5092887;28;20197;-78
2022/11/19 01:41:41;;;;;;;2.77;1.27;;;;;;;-145.69;100.00;52693.94;5093154;28;20209;-78
2022/11/19 01:44:28;;;;;;;1.50;1.10;;;;;;;-145.69;100.00;52654.31;5092475;28;20679;-78
2022/11/19 01:46:54;;;;;;;2.03;1.20;;;;;;;-145.69;100.00;52626.59;5107789;28;20201;-79
2022/11/19 01:49:21;;;;;;;1.30;1.00;;;;;;;-145.69;100.00;52676.09;5113560;28;20198;-78
2022/11/19 01:51:52;;;;;;;3.40;1.00;;;;;;;-145.69;100.00;52650.34;5112397;28;20197;-78
2022/11/19 01:54:24;;;;;;;4.33;1.10;;;;;;;-145.69;100.00;52684.03;5113342;28;20197;-79
2022/11/19 01:56:51;;;;;;;2.47;1.00;;;;;;;-145.69;100.00;52634.50;5113389;28;20261;-78
2022/11/19 01:59:18;;;;;;;1.73;0.80;;;;;;;-145.69;100.00;52693.94;5113520;27;20209;-78
2022/11/19 02:01:45;;;;;;;2.53;1.23;;;;;;;-145.69;100.00;52658.28;5113163;28;20208;-78
2022/11/19 02:04:15;;;;;;;1.83;1.23;;;;;;;-145.69;100.00;52678.09;5113415;28;20560;-79
2022/11/19 02:06:44;;;;;;;1.87;1.00;;;;;;;-145.69;100.00;52652.34;5113233;28;20206;-78
2022/11/19 02:09:11;;;;;;;2.73;1.00;;;;;;;-145.69;100.00;52686.00;5113152;28;20213;-79
2022/11/19 02:11:59;;;;;;;6.43;1.17;;;;;;;-145.69;100.00;52676.09;5113652;28;20563;-79
2022/11/19 02:14:38;;;;;;;2.43;1.23;;;;;;;-145.69;100.00;52660.25;5113457;28;20208;-78
2022/11/19 02:17:13;;;;;;;2.93;1.00;;;;;;;-145.69;100.00;52644.41;5113527;28;20225;-79
2022/11/19 02:20:15;;;;;;;3.50;1.33;;;;;;;-145.69;100.00;52672.13;5113572;28;20185;-79
2022/11/19 02:23:04;;;;;;;1.43;0.90;;;;;;;-145.69;100.00;52658.28;5070765;28;20197;-79
2022/11/19 02:25:45;;;;;;;6.40;1.10;;;;;;;-145.69;100.00;52618.66;5114079;28;20201;-79
2022/11/19 02:28:30;;;;;;;3.43;1.70;;;;;;;-145.69;100.00;52680.06;5118755;28;20197;-80
2022/11/19 02:31:05;;;;;;;1.37;1.00;;;;;;;-145.69;100.00;52650.34;5113736;28;20208;-79
2022/11/19 02:33:39;;;;;;;1.23;0.90;;;;;;;-145.69;100.00;52646.41;5113961;28;20572;-79
2022/11/19 02:36:14;;;;;;;4.10;1.10;;;;;;;-145.69;100.00;52646.41;5112758;28;20858;-78
2022/11/19 02:38:46;;;;;;;3.80;0.90;;;;;;;-145.69;100.00;52660.25;5113322;28;20205;-79
2022/11/19 02:41:34;;;;;;;1.60;0.90;;;;;;;-145.69;100.00;52662.22;5111610;28;20576;-78
2022/11/19 02:46:56;;;;;;;0.87;0.80;;;;;;;-145.69;100.00;52628.56;5112851;28;20551;-78
2022/11/19 02:49:27;;;;;;;4.17;1.00;;;;;;;-145.69;100.00;52630.53;5112743;28;20200;-78
2022/11/19 02:51:55;;;;;;;1.10;0.97;;;;;;;-145.69;100.00;52630.53;5112829;28;20201;-78
2022/11/19 02:54:22;;;;;;;1.10;1.00;;;;;;;-145.69;100.00;52660.25;5113547;28;20710;-78
2022/11/19 02:56:51;;;;;;;1.60;0.80;;;;;;;-145.69;100.00;52606.78;5116382;28;20687;-78
2022/11/19 03:04:55;;;;;;;1.47;0.83;;;;;;;-145.69;100.00;52668.19;5115403;28;20205;-78
2022/11/19 03:07:22;;;;;;;1.53;0.90;;;;;;;-145.69;100.00;52658.28;5116214;28;20193;-78
2022/11/19 03:09:53;;;;;;;1.73;1.07;;;;;;;-145.69;100.00;52632.53;5116151;28;20193;-78
2022/11/19 03:12:28;;;;;;;1.37;0.73;;;;;;;-145.69;100.00;52634.50;5116537;28;20206;-78
2022/11/19 03:18:00;;;;;;;0.87;0.70;;;;;;;-145.69;100.00;52658.28;5116212;28;20221;-78
2022/11/19 03:20:32;;;;;;;2.80;1.10;;;;;;;-145.69;100.00;52668.19;5114387;28;20197;-78
2022/11/19 03:23:04;;;;;;;4.00;0.90;;;;;;;-145.69;100.00;52686.00;5116145;28;20194;-78
2022/11/19 03:25:36;;;;;;;0.80;0.80;;;;;;;-145.69;100.00;52656.28;5116211;28;20201;-78
2022/11/19 03:28:08;;;;;;;3.23;1.07;;;;;;;-145.69;100.00;52654.31;5115972;28;20208;-78
2022/11/19 03:30:34;;;;;;;2.50;1.03;;;;;;;-145.69;100.00;52660.25;5115852;28;20663;-78
2022/11/19 03:33:06;;;;;;;2.90;0.83;;;;;;;-145.69;100.00;52638.47;5115867;28;20674;-78
2022/11/19 03:35:39;;;;;;;1.50;1.13;;;;;;;-145.69;100.00;52678.09;5115619;28;20703;-78
2022/11/19 03:38:08;;;;;;;1.93;0.83;;;;;;;-145.69;100.00;52668.19;5115940;28;20201;-78
2022/11/19 03:40:35;;;;;;;1.60;0.90;;;;;;;-145.69;100.00;52670.16;5115375;28;20200;-78
2022/11/19 03:43:05;;;;;;;1.40;0.93;;;;;;;-145.69;100.00;52680.06;5115921;28;20201;-78
2022/11/19 03:45:39;;;;;;;1.53;0.90;;;;;;;-145.69;100.00;52670.16;5114680;28;20209;-79
2022/11/19 03:48:07;;;;;;;3.67;1.03;;;;;;;-145.69;100.00;52686.00;5115739;28;20197;-78
2022/11/19 03:50:42;;;;;;;0.90;0.80;;;;;;;-145.69;100.00;52682.03;5115685;28;20193;-79
2022/11/19 03:53:09;;;;;;;4.33;1.20;;;;;;;-145.69;100.00;52658.28;5115467;28;20197;-78
2022/11/19 03:55:42;;;;;;;1.90;1.10;;;;;;;-145.69;100.00;52662.22;5115626;28;20228;-79
2022/11/19 03:58:10;;;;;;;1.93;0.97;;;;;;;-145.69;100.00;52693.94;5115776;28;20209;-79
2022/11/19 04:00:37;;;;;;;2.67;0.80;;;;;;;-145.69;100.00;52646.41;5115569;28;20198;-78
2022/11/19 04:03:03;;;;;;;2.17;1.10;;;;;;;-145.69;100.00;52656.28;5115450;28;20193;-78
2022/11/19 04:05:31;;;;;;;3.70;1.17;;;;;;;-145.69;100.00;52642.44;5115046;28;20228;-77
2022/11/19 04:07:58;;;;;;;1.47;0.90;;;;;;;-145.69;100.00;52658.28;5114764;28;20202;-79
2022/11/19 04:10:24;;;;;;;4.97;0.80;;;;;;;-145.69;100.00;52666.19;5115070;28;20198;-79
2022/11/19 04:12:51;;;;;;;1.70;0.90;;;;;;;-145.69;100.00;52662.22;5115077;28;20212;-79
2022/11/19 04:15:17;;;;;;;1.40;1.03;;;;;;;-145.69;100.00;52672.13;5114963;28;20201;-79
2022/11/19 04:17:43;;;;;;;1.70;0.70;;;;;;;-145.69;100.00;52666.19;5115138;28;20670;-78
2022/11/19 04:20:10;;;;;;;1.13;0.70;;;;;;;-145.69;100.00;52636.50;5114900;28;20346;-78
2022/11/19 04:22:38;;;;;;;1.00;0.70;;;;;;;-145.69;100.00;52638.47;5115058;28;20201;-78
2022/11/19 04:25:06;;;;;;;1.57;0.90;;;;;;;-145.69;100.00;52634.50;5113787;28;20679;-79
2022/11/19 04:27:32;;;;;;;2.00;0.73;;;;;;;-145.69;100.00;52658.28;5115037;28;20197;-78
2022/11/19 04:29:58;;;;;;;1.27;0.90;;;;;;;-145.69;100.00;52662.22;5115199;28;20201;-79
2022/11/19 04:32:25;;;;;;;1.83;0.97;;;;;;;-145.69;100.00;52654.31;5118328;28;20208;-79
2022/11/19 04:34:52;;;;;;;3.07;0.97;;;;;;;-145.69;100.00;52658.28;5117800;28;20193;-79
2022/11/19 04:37:18;;;;;;;0.80;0.80;;;;;;;-145.69;100.00;52666.19;5116952;28;20716;-79
2022/11/19 04:39:46;;;;;;;0.97;0.87;;;;;;;-145.69;100.00;52622.63;5114156;28;20644;-78
2022/11/19 04:42:13;;;;;;;0.90;0.83;;;;;;;-145.69;100.00;52638.47;5114757;28;20564;-79
2022/11/19 04:44:39;;;;;;;0.93;0.70;;;;;;;-145.69;100.00;52678.09;5114738;28;20201;-79
2022/11/19 04:47:06;;;;;;;0.70;0.70;;;;;;;-145.69;100.00;52652.34;5114856;28;20201;-78
2022/11/19 04:49:32;;;;;;;1.03;0.77;;;;;;;-145.69;100.00;52632.53;5114266;28;20194;-78
2022/11/19 04:51:59;;;;;;;0.77;0.77;;;;;;;-145.69;100.00;52656.28;5114426;28;20659;-78
2022/11/19 04:54:25;;;;;;;3.80;0.80;;;;;;;-145.69;100.00;52682.03;5114468;28;20205;-79
2022/11/19 04:56:53;;;;;;;1.50;0.80;;;;;;;-145.69;100.00;52686.00;5114204;28;20232;-79
2022/11/19 04:59:19;;;;;;;1.10;0.77;;;;;;;-145.69;100.00;52670.16;5114391;28;20198;-79
2022/11/19 05:01:46;;;;;;;1.70;0.70;;;;;;;-145.69;100.00;52644.41;5114114;28;20721;-78
2022/11/19 05:04:13;;;;;;;1.23;0.90;;;;;;;-145.69;100.00;52666.19;5114501;28;20201;-79
2022/11/19 05:06:39;;;;;;;1.90;1.37;;;;;;;-145.69;100.00;52638.47;5114293;28;20208;-79
2022/11/19 05:09:06;;;;;;;1.73;0.80;;;;;;;-145.69;100.00;52658.28;5114128;28;20594;-80
2022/11/19 05:11:32;;;;;;;0.77;0.60;;;;;;;-145.69;100.00;52672.13;5112920;28;20217;-79
2022/11/19 05:14:00;;;;;;;1.30;0.80;;;;;;;-145.69;100.00;52670.16;5112318;28;20198;-79
2022/11/19 05:16:27;;;;;;;0.90;0.87;;;;;;;-145.69;100.00;52640.44;5113146;28;20683;-78
2022/11/19 05:18:53;;;;;;;1.73;0.90;;;;;;;-145.69;100.00;52678.09;5113161;28;20205;-78
2022/11/19 05:21:20;;;;;;;1.43;0.77;;;;;;;-145.69;100.00;52674.13;5114000;28;20288;-79
2022/11/19 05:23:46;;;;;;;1.80;0.70;;;;;;;-145.69;100.00;52670.16;5102346;28;20198;-79
2022/11/19 05:26:13;;;;;;;1.73;0.80;;;;;;;-145.69;100.00;52644.41;5093209;28;20655;-78
2022/11/19 05:28:39;;;;;;;1.73;0.80;;;;;;;-145.69;100.00;52678.09;5093421;28;20194;-78
2022/11/19 05:31:07;;;;;;;1.43;1.00;;;;;;;-145.69;100.00;52666.19;5093037;28;20202;-79
2022/11/19 05:33:34;;;;;;;1.80;1.03;;;;;;;-145.69;100.00;52662.22;5092815;28;20561;-78
2022/11/19 05:36:00;;;;;;;1.40;1.00;;;;;;;-145.69;100.00;52666.19;5092803;28;20580;-78
2022/11/19 05:38:27;;;;;;;1.83;0.80;;;;;;;-145.69;100.00;52686.00;5091918;28;20684;-78
2022/11/19 05:40:53;;;;;;;8.00;0.97;;;;;;;-145.69;100.00;52676.09;5111570;28;20201;-78
2022/11/19 05:43:20;;;;;;;3.27;1.07;;;;;;;-145.69;100.00;52662.22;5113381;28;20197;-78
2022/11/19 05:45:46;;;;;;;3.20;0.73;;;;;;;-145.69;100.00;52686.00;5113232;28;20284;-78
2022/11/19 05:48:15;;;;;;;1.50;0.67;;;;;;;-145.69;100.00;52678.09;5113599;28;20206;-79
2022/11/19 05:50:42;;;;;;;3.50;0.90;;;;;;;-145.69;100.00;52650.34;5113201;28;20201;-78
2022/11/19 05:53:08;;;;;;;0.80;0.80;;;;;;;-145.69;100.00;52638.47;5113479;28;20247;-78
2022/11/19 05:55:35;;;;;;;1.70;0.80;;;;;;;-145.69;100.00;52652.34;5113363;28;20198;-79
2022/11/19 05:58:03;;;;;;;1.63;0.70;;;;;;;-145.69;100.00;52654.31;5113294;28;20229;-78
2022/11/19 06:00:30;;;;;;;1.37;0.90;;;;;;;-145.69;100.00;52674.13;5113878;28;20201;-78
2022/11/19 06:02:57;;;;;;;1.20;0.80;;;;;;;-145.69;100.00;52676.09;5113462;28;20201;-79
2022/11/19 06:05:24;;;;;;;2.03;0.80;;;;;;;-145.69;100.00;52662.22;5113363;28;20204;-78
2022/11/19 06:07:51;;;;;;;2.27;0.70;;;;;;;-145.69;100.00;52670.16;5113157;28;20647;-78
2022/11/19 06:10:20;;;;;;;1.67;0.80;;;;;;;-145.69;100.00;52654.31;5113338;28;20201;-79
2022/11/19 06:12:47;;;;;;;1.43;1.07;;;;;;;-145.69;100.00;52652.34;5113730;28;20205;-79
2022/11/19 06:15:14;;;;;;;2.30;0.73;;;;;;;-145.69;100.00;52644.41;5113282;28;20205;-78
2022/11/19 06:17:40;;;;;;;3.47;0.90;;;;;;;-145.69;100.00;52638.47;5113216;28;20232;-79
2022/11/19 06:20:10;;;;;;;2.57;1.00;;;;;;;-145.69;100.00;52682.03;5112647;28;20440;-79
2022/11/19 06:22:39;;;;;;;7.40;2.57;;;;;;;-145.69;100.00;52656.28;5092627;28;20237;-78
2022/11/19 06:25:07;;;;;;;13.07;6.47;;;;;;;-145.69;100.00;52666.19;5097490;28;20281;-78
2022/11/19 06:27:34;;;;;;;7.17;3.10;;;;;;;-145.69;100.00;52662.22;5113210;28;20208;-78
2022/11/19 06:30:00;;;;;;;5.40;2.20;;;;;;;-145.69;100.00;52654.31;5114761;28;20250;-79
2022/11/19 06:32:27;;;;;;;5.33;2.13;;;;;;;-145.69;100.00;52642.44;5116783;28;20200;-78
2022/11/19 06:34:53;;;;;;;4.30;1.67;;;;;;;-145.69;100.00;52684.03;5116691;28;20193;-77
2022/11/19 06:37:20;;;;;;;8.27;2.10;;;;;;;-145.69;100.00;52654.31;5116677;28;20568;-78
2022/11/19 06:39:51;;;;;;;5.77;2.80;;;;;;;-145.69;100.00;52662.22;5116845;28;20246;-78
2022/11/19 06:45:08;;;;;;;3.77;2.30;;;;;;;-145.69;100.00;52642.44;5111406;27;20239;-78
2022/11/19 06:47:40;;;;;;;4.73;1.90;;;;;;;-145.69;100.00;52682.03;5116133;28;20197;-78
2022/11/19 06:50:08;;;;;;;2.20;1.30;;;;;;;-145.69;100.00;52652.34;5114776;28;20560;-78
2022/11/19 06:52:34;;;;;;;1.80;1.30;;;;;;;-145.69;100.00;52672.13;5117248;28;20283;-78
2022/11/19 06:55:02;;;;;;;3.07;1.13;;;;;;;-145.69;100.00;52662.22;5116811;28;20216;-78
2022/11/19 06:57:31;;;;;;;2.77;1.20;;;;;;;-145.69;100.00;52662.22;5116610;28;20226;-78
2022/11/19 06:59:57;;;;;;;1.73;1.00;;;;;;;-145.69;100.00;52630.53;5116653;28;20202;-78
2022/11/19 07:02:24;;;;;;;1.67;1.03;;;;;;;-145.69;100.00;52666.19;5116515;28;20201;-78
2022/11/19 07:04:50;;;;;;;2.40;1.10;;;;;;;-145.69;100.00;52648.38;5116115;28;20201;-78
2022/11/19 07:07:17;;;;;;;2.20;0.90;;;;;;;-145.69;100.00;52658.28;5116933;28;20202;-78
2022/11/19 07:09:43;;;;;;;3.30;1.07;;;;;;;-145.69;100.00;52654.31;5116426;28;20235;-78
2022/11/19 07:12:11;;;;;;;4.33;0.80;;;;;;;-145.69;100.00;52654.31;5116454;28;20201;-78
2022/11/19 07:14:41;;;;;;;2.97;0.93;;;;;;;-145.69;100.00;52640.44;5116214;28;20205;-78
2022/11/19 07:17:07;;;;;;;2.80;0.93;;;;;;;-145.69;100.00;52670.16;5106255;28;20304;-78
2022/11/19 07:19:34;;;;;;;2.80;1.70;;;;;;;-145.69;100.00;52670.16;5097628;28;20198;-77
2022/11/19 07:22:00;;;;;;;4.03;2.00;;;;;;;-145.69;100.00;52672.13;5115768;28;20189;-78
2022/11/19 07:24:29;;;;;;;6.10;2.10;;;;;;;-145.69;100.00;52674.13;5116064;28;20560;-78
2022/11/19 07:26:56;;;;;;;2.03;1.40;;;;;;;-145.69;100.00;52668.19;5115941;27;20197;-78
2022/11/19 07:29:24;;;;;;;3.90;2.03;;;;;;;-145.69;100.00;52646.41;5116039;28;20201;-78
2022/11/19 07:31:52;;;;;;;4.03;2.00;;;;;;;-145.69;100.00;52666.19;5115970;28;20198;-78
2022/11/19 07:34:19;;;;;;;3.20;2.20;;;;;;;-145.69;100.00;52678.09;5116134;28;20205;-78
2022/11/19 07:36:46;;;;;;;4.23;2.43;;;;;;;-145.69;100.00;52670.16;5115481;28;20599;-77
2022/11/19 07:39:12;;;;;;;4.37;2.53;;;;;;;-145.69;100.00;52656.28;5115940;28;20205;-78
2022/11/19 07:44:24;;;;;;;9.60;2.90;;;;;;;-145.69;100.00;52658.28;5115744;28;20712;-78
2022/11/19 07:46:51;;;;;;;6.80;2.23;;;;;;;-145.69;100.00;52674.13;5115647;28;20674;-78
2022/11/19 07:49:18;;;;;;;4.90;2.03;;;;;;;-145.69;100.00;52646.41;5115812;28;20211;-78
2022/11/19 07:51:44;;;;;;;8.57;1.53;;;;;;;-145.69;100.00;52652.34;5115706;28;20212;-77
2022/11/19 07:54:11;;;;;;;2.87;1.70;;;;;;;-145.69;100.00;52660.25;5115588;28;20668;-77
2022/11/19 07:56:37;;;;;;;4.10;1.60;;;;;;;-145.69;100.00;52632.53;5114902;28;20217;-77
2022/11/19 07:59:04;;;;;;;3.13;1.60;;;;;;;-145.69;100.00;52668.19;5115556;28;20201;-79
2022/11/19 08:01:32;;;;;;;3.40;1.80;;;;;;;-145.69;100.00;52650.34;5114080;28;20687;-78
2022/11/19 08:03:59;;;;;;;4.23;2.07;;;;;;;-145.69;100.00;52640.44;5115525;28;20303;-78
2022/11/19 08:06:27;;;;;;;4.40;1.40;;;;;;;-145.69;100.00;52682.03;5114343;28;20291;-78
2022/11/19 08:08:55;;;;;;;6.20;1.50;;;;;;;-145.69;100.00;52640.44;5115041;28;20209;-78
2022/11/19 08:11:22;;;;;;;1.83;1.20;;;;;;;-145.69;100.00;52642.44;5115183;28;20202;-78
2022/11/19 08:13:48;;;;;;;3.53;1.30;;;;;;;-145.69;100.00;52654.31;5115112;28;20197;-78
2022/11/19 08:18:11;;;;;;;5.50;1.20;;;;;;;-145.69;100.00;52630.53;5115100;28;20212;-78
2022/11/19 08:19:06;;;;;;;1.33;0.90;;;;;;;-145.69;100.00;52652.34;5114967;28;20280;-78
2022/11/19 08:21:33;;;;;;;2.47;1.10;;;;;;;-145.69;100.00;52670.16;5114956;28;20204;-78
2022/11/19 08:23:59;;;;;;;1.90;1.17;;;;;;;-145.69;100.00;52618.66;5115389;28;20203;-78
2022/11/19 08:26:26;;;;;;;2.23;1.00;;;;;;;-145.69;100.00;52634.50;5115226;28;20208;-77
2022/11/19 08:28:53;;;;;;;0.80;0.80;;;;;;;-145.69;100.00;52642.44;5116703;28;20193;-76
2022/11/19 08:31:20;;;;;;;3.20;1.20;;;;;;;-145.69;100.00;52626.59;5114996;28;20205;-77
2022/11/19 08:33:46;;;;;;;3.30;1.10;;;;;;;-145.69;100.00;52634.50;5114768;28;20225;-77
2022/11/19 08:36:14;;;;;;;3.00;1.07;;;;;;;-145.69;100.00;52648.38;5114588;28;20256;-77
2022/11/19 08:38:40;;;;;;;2.70;1.20;;;;;;;-145.69;100.00;52638.47;5114394;27;20225;-78
2022/11/19 08:43:51;;;;;;;2.63;1.10;;;;;;;-145.69;100.00;52630.53;5114658;28;20195;-78
2022/11/19 08:46:18;;;;;;;2.10;1.10;;;;;;;-145.69;100.00;52662.22;5114731;28;20266;-78
2022/11/19 08:48:44;;;;;;;2.47;1.10;;;;;;;-145.69;100.00;52604.81;5115389;28;20283;-78
2022/11/19 08:51:13;;;;;;;3.80;1.20;;;;;;;-145.69;100.00;52616.69;5115079;28;20656;-78
2022/11/19 08:53:41;;;;;;;1.63;0.93;;;;;;;-145.69;100.00;52638.47;5115622;28;20292;-78
2022/11/19 08:56:08;;;;;;;2.90;0.93;;;;;;;-145.69;100.00;52610.75;5115568;28;20201;-79
2022/11/19 08:58:35;;;;;;;1.70;1.00;;;;;;;-145.69;100.00;52630.53;5114239;28;20224;-78
2022/11/19 09:01:08;;;;;;;4.10;0.80;;;;;;;-145.69;100.00;52598.84;5107140;28;20638;-77
2022/11/19 09:03:35;;;;;;;3.40;1.13;;;;;;;-145.69;100.00;52618.66;5093658;28;20206;-77
2022/11/19 09:06:01;;;;;;;7.07;1.23;;;;;;;-145.69;100.00;52598.84;5112988;28;20194;-77
2022/11/19 09:08:28;;;;;;;1.77;0.70;;;;;;;-145.69;100.00;52622.63;5100144;28;20209;-77
2022/11/19 09:10:56;;;;;;;1.93;0.90;;;;;;;-145.69;100.00;52626.59;5093665;28;20198;-77
2022/11/19 09:13:23;;;;;;;1.80;0.77;;;;;;;-145.69;100.00;52606.78;5092603;28;20197;-77
2022/11/19 09:15:49;;;;;;;3.10;0.80;;;;;;;-145.69;100.00;52581.03;5093528;28;20198;-78
2022/11/19 09:18:16;;;;;;;1.60;0.80;;;;;;;-145.69;100.00;52646.41;5092443;28;20225;-78
2022/11/19 09:20:43;;;;;;;2.47;0.93;;;;;;;-145.69;100.00;52618.66;5093936;28;20225;-77
2022/11/19 09:23:09;;;;;;;3.07;0.90;;;;;;;-145.69;100.00;52618.66;5099848;28;20568;-78
2022/11/19 09:25:36;;;;;;;2.20;1.00;;;;;;;-145.69;100.00;52638.47;5114204;28;20204;-78
2022/11/19 09:28:05;;;;;;;2.33;0.90;;;;;;;-145.69;100.00;52638.47;5113835;28;20561;-75
2022/11/19 09:30:32;;;;;;;1.47;0.70;;;;;;;-145.69;100.00;52638.47;5113415;28;20200;-76
2022/11/19 09:32:59;;;;;;;2.30;0.80;;;;;;;-145.69;100.00;52640.44;5113511;28;20242;-75
2022/11/19 09:35:25;;;;;;;3.47;0.90;;;;;;;-145.69;100.00;52626.59;5113171;28;20239;-78
2022/11/19 09:37:52;;;;;;;1.37;0.80;;;;;;;-145.69;100.00;52612.72;5113623;28;20221;-77
2022/11/19 09:40:22;;;;;;;9.67;4.43;;;;;;;-145.69;100.00;52622.63;5113451;28;20201;-77
2022/11/19 09:43:05;;;;;;;2.10;1.13;;;;;;;-145.69;100.00;52646.41;5113360;28;20651;-76
2022/11/19 09:45:46;;;;;;;2.00;1.00;;;;;;;-145.69;100.00;52614.72;5113474;28;20197;-77
2022/11/19 09:48:24;;;;;;;1.57;0.80;;;;;;;-145.69;100.00;52650.34;5113486;28;20201;-77
2022/11/19 09:50:53;;;;;;;1.07;0.60;;;;;;;-145.69;100.00;52610.75;5113483;28;20559;-77
2022/11/19 09:53:21;;;;;;;1.27;0.80;;;;;;;-145.69;100.00;52638.47;5113411;28;20204;-77
2022/11/19 09:55:50;;;;;;;2.80;0.80;;;;;;;-145.69;100.00;52614.72;5111878;28;20201;-77
2022/11/19 09:58:20;;;;;;;3.90;1.20;;;;;;;-145.69;100.00;52622.63;5113121;28;20228;-76
2022/11/19 10:00:48;;;;;;;5.13;1.40;;;;;;;-145.69;100.00;52610.75;5113363;28;20194;-76
2022/11/19 10:03:18;;;;;;;1.33;0.67;;;;;;;-145.69;100.00;52626.59;5113281;28;20212;-77
2022/11/19 10:05:59;;;;;;;4.50;0.97;;;;;;;-145.69;100.00;52638.47;5119156;28;20197;-77
2022/11/19 10:08:35;;;;;;;3.43;1.00;;;;;;;-145.69;100.00;52630.53;5119964;28;20185;-78
2022/11/19 10:11:13;;;;;;;3.60;0.80;;;;;;;-145.69;100.00;52598.84;5120108;28;20197;-77
2022/11/19 10:13:50;;;;;;;2.03;0.70;;;;;;;-145.69;100.00;52596.88;5120094;28;20197;-77
2022/11/19 10:16:35;;;;;;;3.00;0.80;;;;;;;-145.69;100.00;52622.63;5118943;28;20197;-77
2022/11/19 10:19:16;;;;;;;3.63;0.77;;;;;;;-145.69;100.00;52594.91;5119850;28;20220;-77
2022/11/19 10:21:54;;;;;;;1.37;0.70;;;;;;;-145.69;100.00;52650.34;5120074;28;20287;-77
2022/11/19 10:24:32;;;;;;;5.67;0.80;;;;;;;-145.69;100.00;52612.72;5119958;27;20277;-77
2022/11/19 10:27:03;;;;;;;2.97;0.90;;;;;;;-145.69;100.00;52618.66;5119784;27;20197;-76
2022/11/19 10:29:32;;;;;;;1.83;0.90;;;;;;;-145.69;100.00;52606.78;5119974;27;20197;-78
2022/11/19 10:32:20;;;;;;;1.37;0.97;;;;;;;-145.69;100.00;52638.47;5118975;28;20197;-77
2022/11/19 10:34:50;;;;;;;2.17;1.00;;;;;;;-145.69;100.00;52624.59;5119437;28;20719;-77
2022/11/19 10:37:22;;;;;;;1.60;1.13;;;;;;;-145.69;100.00;52590.94;5117792;27;20228;-77
2022/11/19 10:39:54;;;;;;;2.50;1.13;;;;;;;-145.69;100.00;52662.22;5119776;28;20201;-77
2022/11/19 10:42:25;;;;;;;1.37;1.13;;;;;;;-145.69;100.00;52618.66;5119581;28;20288;-77
2022/11/19 10:44:55;;;;;;;1.30;0.90;;;;;;;-145.69;100.00;52620.66;5118831;28;20201;-77
2022/11/19 10:47:31;;;;;;;2.73;1.20;;;;;;;-145.69;100.00;52638.47;5119802;28;20735;-77
2022/11/19 10:49:58;;;;;;;3.87;1.97;;;;;;;-145.69;100.00;52610.75;5119369;28;20283;-77
2022/11/19 10:52:29;;;;;;;3.33;1.27;;;;;;;-145.69;100.00;52624.59;5120478;28;20559;-77
2022/11/19 10:55:00;;;;;;;2.10;1.20;;;;;;;-145.69;100.00;52622.63;5119768;28;20200;-78
2022/11/19 10:57:31;;;;;;;5.47;1.20;;;;;;;-145.69;100.00;52590.94;5119594;28;20231;-76
2022/11/19 11:00:00;;;;;;;2.87;1.10;;;;;;;-145.69;100.00;52644.41;5119523;28;20208;-78
2022/11/19 11:02:38;;;;;;;3.00;1.00;;;;;;;-145.69;100.00;52646.41;5119239;28;20198;-77
2022/11/19 11:05:11;;;;;;;2.30;1.20;;;;;;;-145.69;100.00;52618.66;5119190;27;20279;-77
2022/11/19 11:07:55;;;;;;;1.67;1.00;;;;;;;-145.69;100.00;52638.47;5119659;28;20214;-77
2022/11/19 11:10:45;;;;;;;3.50;1.37;;;;;;;-145.69;100.00;52626.59;5119669;28;20205;-78
2022/11/19 11:16:12;;;;;;;2.43;0.90;;;;;;;-145.69;100.00;52608.75;5090338;28;20201;-80
2022/11/19 11:18:40;;;;;;;3.23;1.27;;;;;;;-145.69;100.00;52622.63;5089830;28;20225;-77
2022/11/19 11:21:11;;;;;;;4.47;1.00;;;;;;;-145.69;100.00;52622.63;5091179;28;20560;-78
2022/11/19 11:23:53;;;;;;;3.10;0.73;;;;;;;-145.69;100.00;52630.53;5106429;28;20193;-77
2022/11/19 11:26:22;;;;;;;1.83;0.73;;;;;;;-145.69;100.00;52598.84;5115848;28;20686;-77
2022/11/19 11:28:57;;;;;;;2.17;1.20;;;;;;;-145.69;100.00;52642.44;5115939;28;20680;-77
2022/11/19 11:31:36;;;;;;;1.90;0.80;;;;;;;-145.69;100.00;52642.44;5115845;28;20205;-77
2022/11/19 11:34:05;;;;;;;2.67;1.10;;;;;;;-145.69;100.00;52626.59;5116188;28;20201;-78
2022/11/19 11:36:35;;;;;;;2.90;1.13;;;;;;;-145.69;100.00;52646.41;5115698;28;20241;-77
2022/11/19 11:39:04;;;;;;;2.70;1.00;;;;;;;-145.69;100.00;52630.53;5115846;28;20568;-77
2022/11/19 11:41:37;;;;;;;2.37;0.90;;;;;;;-145.69;100.00;52620.66;5115730;28;20202;-77